sensor_id;sensor_type;location;lat;lon;timestamp;P1;durP1;ratioP1;P2;durP2;ratioP2
17991;SDS011;9121;50.926;5.340;2023-07-31T00:02:01;18.38;;;5.13;;
17991;SDS011;9121;50.926;5.340;2023-07-31T00:04:28;15.30;;;4.97;;
17991;SDS011;9121;50.926;5.340;2023-07-31T00:06:56;14.55;;;5.53;;
17991;SDS011;9121;50.926;5.340;2023-07-31T00:09:23;15.65;;;4.85;;
17991;SDS011;9121;50.926;5.340;2023-07-31T00:11:51;18.65;;;5.15;;
17991;SDS011;9121;50.926;5.340;2023-07-31T00:14:18;15.63;;;5.07;;
17991;SDS011;9121;50.926;5.340;2023-07-31T00:16:44;13.40;;;5.50;;
17991;SDS011;9121;50.926;5.340;2023-07-31T00:19:11;13.98;;;5.68;;
17991;SDS011;9121;50.926;5.340;2023-07-31T00:21:38;16.63;;;5.40;;
17991;SDS011;9121;50.926;5.340;2023-07-31T00:24:07;19.77;;;5.15;;
17991;SDS011;9121;50.926;5.340;2023-07-31T00:26:33;19.65;;;5.43;;
17991;SDS011;9121;50.926;5.340;2023-07-31T00:29:00;17.15;;;5.70;;
17991;SDS011;9121;50.926;5.340;2023-07-31T00:31:27;20.15;;;5.03;;
17991;SDS011;9121;50.926;5.340;2023-07-31T00:33:54;15.73;;;5.07;;
17991;SDS011;9121;50.926;5.340;2023-07-31T00:36:21;16.17;;;5.15;;
17991;SDS011;9121;50.926;5.340;2023-07-31T00:38:48;19.98;;;6.15;;
17991;SDS011;9121;50.926;5.340;2023-07-31T00:41:17;14.00;;;4.50;;
17991;SDS011;9121;50.926;5.340;2023-07-31T00:43:44;16.08;;;5.40;;
17991;SDS011;9121;50.926;5.340;2023-07-31T00:46:11;16.45;;;5.45;;
17991;SDS011;9121;50.926;5.340;2023-07-31T00:48:38;16.45;;;5.40;;
17991;SDS011;9121;50.926;5.340;2023-07-31T00:51:07;14.38;;;5.63;;
17991;SDS011;9121;50.926;5.340;2023-07-31T00:53:34;16.08;;;4.97;;
17991;SDS011;9121;50.926;5.340;2023-07-31T00:56:01;15.60;;;5.22;;
17991;SDS011;9121;50.926;5.340;2023-07-31T00:58:30;15.70;;;5.25;;
17991;SDS011;9121;50.926;5.340;2023-07-31T01:00:57;11.65;;;4.85;;
17991;SDS011;9121;50.926;5.340;2023-07-31T01:03:24;15.13;;;5.40;;
17991;SDS011;9121;50.926;5.340;2023-07-31T01:05:53;24.15;;;5.65;;
17991;SDS011;9121;50.926;5.340;2023-07-31T01:08:32;18.50;;;5.45;;
17991;SDS011;9121;50.926;5.340;2023-07-31T01:11:07;13.57;;;5.18;;
17991;SDS011;9121;50.926;5.340;2023-07-31T01:13:42;12.98;;;5.05;;
17991;SDS011;9121;50.926;5.340;2023-07-31T01:16:09;13.15;;;5.32;;
17991;SDS011;9121;50.926;5.340;2023-07-31T01:18:36;16.50;;;5.43;;
17991;SDS011;9121;50.926;5.340;2023-07-31T01:21:03;13.25;;;4.93;;
17991;SDS011;9121;50.926;5.340;2023-07-31T01:24:02;17.60;;;5.38;;
17991;SDS011;9121;50.926;5.340;2023-07-31T01:26:40;14.63;;;5.53;;
17991;SDS011;9121;50.926;5.340;2023-07-31T01:29:13;10.82;;;4.70;;
17991;SDS011;9121;50.926;5.340;2023-07-31T01:31:43;13.02;;;4.70;;
17991;SDS011;9121;50.926;5.340;2023-07-31T01:34:16;11.98;;;4.60;;
17991;SDS011;9121;50.926;5.340;2023-07-31T01:36:44;14.68;;;4.70;;
17991;SDS011;9121;50.926;5.340;2023-07-31T01:39:11;16.55;;;5.43;;
17991;SDS011;9121;50.926;5.340;2023-07-31T01:41:41;17.17;;;5.57;;
17991;SDS011;9121;50.926;5.340;2023-07-31T01:44:08;15.95;;;5.00;;
17991;SDS011;9121;50.926;5.340;2023-07-31T01:46:35;11.10;;;4.78;;
17991;SDS011;9121;50.926;5.340;2023-07-31T01:49:02;15.13;;;5.47;;
17991;SDS011;9121;50.926;5.340;2023-07-31T01:51:30;17.15;;;5.32;;
17991;SDS011;9121;50.926;5.340;2023-07-31T01:53:59;10.63;;;4.65;;
17991;SDS011;9121;50.926;5.340;2023-07-31T01:56:26;12.55;;;4.68;;
17991;SDS011;9121;50.926;5.340;2023-07-31T01:58:54;16.88;;;5.28;;
17991;SDS011;9121;50.926;5.340;2023-07-31T02:01:21;17.10;;;5.22;;
17991;SDS011;9121;50.926;5.340;2023-07-31T02:03:48;17.98;;;5.55;;
17991;SDS011;9121;50.926;5.340;2023-07-31T02:06:15;16.00;;;5.43;;
17991;SDS011;9121;50.926;5.340;2023-07-31T02:08:42;13.45;;;5.45;;
17991;SDS011;9121;50.926;5.340;2023-07-31T02:11:09;16.27;;;5.60;;
17991;SDS011;9121;50.926;5.340;2023-07-31T02:13:36;13.60;;;5.90;;
17991;SDS011;9121;50.926;5.340;2023-07-31T02:16:04;19.92;;;5.60;;
17991;SDS011;9121;50.926;5.340;2023-07-31T02:18:31;17.75;;;6.10;;
17991;SDS011;9121;50.926;5.340;2023-07-31T02:20:58;16.67;;;5.47;;
17991;SDS011;9121;50.926;5.340;2023-07-31T02:23:25;14.68;;;5.53;;
17991;SDS011;9121;50.926;5.340;2023-07-31T02:25:52;12.90;;;5.65;;
17991;SDS011;9121;50.926;5.340;2023-07-31T02:28:19;11.57;;;5.20;;
17991;SDS011;9121;50.926;5.340;2023-07-31T02:30:46;15.82;;;5.50;;
17991;SDS011;9121;50.926;5.340;2023-07-31T02:33:14;13.48;;;5.60;;
17991;SDS011;9121;50.926;5.340;2023-07-31T02:35:42;11.38;;;5.60;;
17991;SDS011;9121;50.926;5.340;2023-07-31T02:38:09;15.45;;;5.50;;
17991;SDS011;9121;50.926;5.340;2023-07-31T02:40:36;21.92;;;6.05;;
17991;SDS011;9121;50.926;5.340;2023-07-31T02:43:02;16.30;;;5.82;;
17991;SDS011;9121;50.926;5.340;2023-07-31T02:45:29;12.18;;;5.57;;
17991;SDS011;9121;50.926;5.340;2023-07-31T02:47:56;13.80;;;6.15;;
17991;SDS011;9121;50.926;5.340;2023-07-31T02:50:24;14.70;;;5.18;;
17991;SDS011;9121;50.926;5.340;2023-07-31T02:52:52;17.73;;;5.75;;
17991;SDS011;9121;50.926;5.340;2023-07-31T02:55:19;14.40;;;5.80;;
17991;SDS011;9121;50.926;5.340;2023-07-31T02:57:46;14.20;;;5.43;;
17991;SDS011;9121;50.926;5.340;2023-07-31T03:00:13;20.83;;;5.82;;
17991;SDS011;9121;50.926;5.340;2023-07-31T03:02:40;15.82;;;5.57;;
17991;SDS011;9121;50.926;5.340;2023-07-31T03:05:07;18.33;;;6.15;;
17991;SDS011;9121;50.926;5.340;2023-07-31T03:07:35;15.90;;;5.82;;
17991;SDS011;9121;50.926;5.340;2023-07-31T03:10:03;13.13;;;5.30;;
17991;SDS011;9121;50.926;5.340;2023-07-31T03:12:30;12.40;;;5.70;;
17991;SDS011;9121;50.926;5.340;2023-07-31T03:14:57;17.63;;;6.22;;
17991;SDS011;9121;50.926;5.340;2023-07-31T03:17:24;12.90;;;5.72;;
17991;SDS011;9121;50.926;5.340;2023-07-31T03:19:51;10.70;;;5.60;;
17991;SDS011;9121;50.926;5.340;2023-07-31T03:22:18;11.93;;;5.43;;
17991;SDS011;9121;50.926;5.340;2023-07-31T03:24:47;12.65;;;5.63;;
17991;SDS011;9121;50.926;5.340;2023-07-31T03:27:13;15.00;;;5.70;;
17991;SDS011;9121;50.926;5.340;2023-07-31T03:29:40;14.30;;;5.10;;
17991;SDS011;9121;50.926;5.340;2023-07-31T03:32:07;11.23;;;5.38;;
17991;SDS011;9121;50.926;5.340;2023-07-31T03:34:34;13.77;;;5.15;;
17991;SDS011;9121;50.926;5.340;2023-07-31T03:37:02;14.73;;;6.47;;
17991;SDS011;9121;50.926;5.340;2023-07-31T03:39:30;13.65;;;5.72;;
17991;SDS011;9121;50.926;5.340;2023-07-31T03:41:59;15.95;;;6.00;;
17991;SDS011;9121;50.926;5.340;2023-07-31T03:44:26;9.98;;;5.30;;
17991;SDS011;9121;50.926;5.340;2023-07-31T03:46:52;18.65;;;6.00;;
17991;SDS011;9121;50.926;5.340;2023-07-31T03:49:19;17.50;;;5.15;;
17991;SDS011;9121;50.926;5.340;2023-07-31T03:51:46;13.02;;;5.07;;
17991;SDS011;9121;50.926;5.340;2023-07-31T03:54:13;14.30;;;5.10;;
17991;SDS011;9121;50.926;5.340;2023-07-31T03:56:40;9.13;;;4.85;;
17991;SDS011;9121;50.926;5.340;2023-07-31T03:59:09;10.75;;;5.25;;
17991;SDS011;9121;50.926;5.340;2023-07-31T04:01:35;14.95;;;4.97;;
17991;SDS011;9121;50.926;5.340;2023-07-31T04:04:02;8.25;;;4.68;;
17991;SDS011;9121;50.926;5.340;2023-07-31T04:06:30;7.53;;;4.63;;
17991;SDS011;9121;50.926;5.340;2023-07-31T04:08:57;11.15;;;5.28;;
17991;SDS011;9121;50.926;5.340;2023-07-31T04:11:24;9.40;;;5.20;;
17991;SDS011;9121;50.926;5.340;2023-07-31T04:13:51;12.25;;;5.35;;
17991;SDS011;9121;50.926;5.340;2023-07-31T04:16:19;12.90;;;5.13;;
17991;SDS011;9121;50.926;5.340;2023-07-31T04:18:46;10.07;;;4.50;;
17991;SDS011;9121;50.926;5.340;2023-07-31T04:21:13;8.90;;;4.50;;
17991;SDS011;9121;50.926;5.340;2023-07-31T04:23:40;9.80;;;4.80;;
17991;SDS011;9121;50.926;5.340;2023-07-31T04:26:07;10.52;;;4.82;;
17991;SDS011;9121;50.926;5.340;2023-07-31T04:28:34;10.68;;;4.63;;
17991;SDS011;9121;50.926;5.340;2023-07-31T04:31:01;12.90;;;4.82;;
17991;SDS011;9121;50.926;5.340;2023-07-31T04:33:29;13.52;;;4.65;;
17991;SDS011;9121;50.926;5.340;2023-07-31T04:35:56;9.95;;;4.97;;
17991;SDS011;9121;50.926;5.340;2023-07-31T04:38:23;7.60;;;4.00;;
17991;SDS011;9121;50.926;5.340;2023-07-31T04:40:50;8.25;;;3.90;;
17991;SDS011;9121;50.926;5.340;2023-07-31T04:43:17;9.63;;;4.03;;
17991;SDS011;9121;50.926;5.340;2023-07-31T04:45:45;8.90;;;4.22;;
17991;SDS011;9121;50.926;5.340;2023-07-31T04:48:13;12.52;;;4.30;;
17991;SDS011;9121;50.926;5.340;2023-07-31T04:50:41;11.82;;;4.28;;
17991;SDS011;9121;50.926;5.340;2023-07-31T04:53:08;9.80;;;4.15;;
17991;SDS011;9121;50.926;5.340;2023-07-31T04:55:35;11.00;;;4.90;;
17991;SDS011;9121;50.926;5.340;2023-07-31T04:58:02;9.65;;;4.70;;
17991;SDS011;9121;50.926;5.340;2023-07-31T05:00:29;11.13;;;4.38;;
17991;SDS011;9121;50.926;5.340;2023-07-31T05:02:56;13.57;;;5.35;;
17991;SDS011;9121;50.926;5.340;2023-07-31T05:05:23;12.90;;;5.55;;
17991;SDS011;9121;50.926;5.340;2023-07-31T05:07:51;12.18;;;5.38;;
17991;SDS011;9121;50.926;5.340;2023-07-31T05:10:18;16.30;;;5.50;;
17991;SDS011;9121;50.926;5.340;2023-07-31T05:12:45;13.50;;;6.10;;
17991;SDS011;9121;50.926;5.340;2023-07-31T05:15:12;13.60;;;5.28;;
17991;SDS011;9121;50.926;5.340;2023-07-31T05:17:39;11.18;;;5.20;;
17991;SDS011;9121;50.926;5.340;2023-07-31T05:20:06;18.05;;;6.03;;
17991;SDS011;9121;50.926;5.340;2023-07-31T05:22:34;15.65;;;5.82;;
17991;SDS011;9121;50.926;5.340;2023-07-31T05:25:02;12.27;;;5.57;;
17991;SDS011;9121;50.926;5.340;2023-07-31T05:27:31;13.63;;;5.28;;
17991;SDS011;9121;50.926;5.340;2023-07-31T05:29:58;11.88;;;5.22;;
17991;SDS011;9121;50.926;5.340;2023-07-31T05:32:25;13.05;;;5.80;;
17991;SDS011;9121;50.926;5.340;2023-07-31T05:34:52;9.77;;;5.53;;
17991;SDS011;9121;50.926;5.340;2023-07-31T05:37:19;15.63;;;5.22;;
17991;SDS011;9121;50.926;5.340;2023-07-31T05:39:47;14.15;;;5.07;;
17991;SDS011;9121;50.926;5.340;2023-07-31T05:42:15;13.82;;;5.32;;
17991;SDS011;9121;50.926;5.340;2023-07-31T05:44:42;8.10;;;4.68;;
17991;SDS011;9121;50.926;5.340;2023-07-31T05:47:10;13.40;;;4.82;;
17991;SDS011;9121;50.926;5.340;2023-07-31T05:49:37;11.25;;;4.78;;
17991;SDS011;9121;50.926;5.340;2023-07-31T05:52:04;10.70;;;4.85;;
17991;SDS011;9121;50.926;5.340;2023-07-31T05:54:31;13.20;;;4.85;;
17991;SDS011;9121;50.926;5.340;2023-07-31T05:56:59;14.07;;;5.20;;
17991;SDS011;9121;50.926;5.340;2023-07-31T05:59:27;11.68;;;4.72;;
17991;SDS011;9121;50.926;5.340;2023-07-31T06:01:56;10.82;;;4.85;;
17991;SDS011;9121;50.926;5.340;2023-07-31T06:04:23;11.65;;;4.47;;
17991;SDS011;9121;50.926;5.340;2023-07-31T06:06:50;11.68;;;4.60;;
17991;SDS011;9121;50.926;5.340;2023-07-31T06:09:17;11.95;;;5.15;;
17991;SDS011;9121;50.926;5.340;2023-07-31T06:11:45;12.52;;;5.28;;
17991;SDS011;9121;50.926;5.340;2023-07-31T06:14:12;13.45;;;4.90;;
17991;SDS011;9121;50.926;5.340;2023-07-31T06:16:41;10.57;;;4.60;;
17991;SDS011;9121;50.926;5.340;2023-07-31T06:19:09;10.48;;;4.80;;
17991;SDS011;9121;50.926;5.340;2023-07-31T06:21:36;11.30;;;4.85;;
17991;SDS011;9121;50.926;5.340;2023-07-31T06:24:03;10.98;;;5.20;;
17991;SDS011;9121;50.926;5.340;2023-07-31T06:26:30;9.98;;;4.70;;
17991;SDS011;9121;50.926;5.340;2023-07-31T06:28:58;13.57;;;4.80;;
17991;SDS011;9121;50.926;5.340;2023-07-31T06:31:24;9.55;;;4.82;;
17991;SDS011;9121;50.926;5.340;2023-07-31T06:33:53;10.55;;;5.22;;
17991;SDS011;9121;50.926;5.340;2023-07-31T06:36:20;14.70;;;4.80;;
17991;SDS011;9121;50.926;5.340;2023-07-31T06:38:48;11.60;;;5.53;;
17991;SDS011;9121;50.926;5.340;2023-07-31T06:41:15;16.25;;;5.40;;
17991;SDS011;9121;50.926;5.340;2023-07-31T06:43:42;15.57;;;5.13;;
17991;SDS011;9121;50.926;5.340;2023-07-31T06:46:09;12.40;;;6.03;;
17991;SDS011;9121;50.926;5.340;2023-07-31T06:48:36;11.98;;;5.47;;
17991;SDS011;9121;50.926;5.340;2023-07-31T06:51:04;11.70;;;4.70;;
17991;SDS011;9121;50.926;5.340;2023-07-31T06:53:31;16.95;;;5.65;;
17991;SDS011;9121;50.926;5.340;2023-07-31T06:55:58;16.13;;;5.55;;
17991;SDS011;9121;50.926;5.340;2023-07-31T06:58:25;14.27;;;5.40;;
17991;SDS011;9121;50.926;5.340;2023-07-31T07:00:52;16.67;;;5.18;;
17991;SDS011;9121;50.926;5.340;2023-07-31T07:03:18;15.30;;;5.75;;
17991;SDS011;9121;50.926;5.340;2023-07-31T07:05:46;11.20;;;5.40;;
17991;SDS011;9121;50.926;5.340;2023-07-31T07:08:14;12.05;;;4.93;;
17991;SDS011;9121;50.926;5.340;2023-07-31T07:10:42;17.27;;;5.28;;
17991;SDS011;9121;50.926;5.340;2023-07-31T07:13:08;14.02;;;5.32;;
17991;SDS011;9121;50.926;5.340;2023-07-31T07:15:37;10.00;;;5.05;;
17991;SDS011;9121;50.926;5.340;2023-07-31T07:18:04;13.50;;;5.60;;
17991;SDS011;9121;50.926;5.340;2023-07-31T07:20:32;13.85;;;4.75;;
17991;SDS011;9121;50.926;5.340;2023-07-31T07:22:59;11.82;;;4.88;;
17991;SDS011;9121;50.926;5.340;2023-07-31T07:25:27;14.07;;;5.45;;
17991;SDS011;9121;50.926;5.340;2023-07-31T07:27:54;11.10;;;5.13;;
17991;SDS011;9121;50.926;5.340;2023-07-31T07:30:21;11.32;;;4.32;;
17991;SDS011;9121;50.926;5.340;2023-07-31T07:32:50;15.80;;;4.97;;
17991;SDS011;9121;50.926;5.340;2023-07-31T07:35:17;9.38;;;4.22;;
17991;SDS011;9121;50.926;5.340;2023-07-31T07:37:44;10.65;;;5.15;;
17991;SDS011;9121;50.926;5.340;2023-07-31T07:40:11;11.95;;;4.80;;
17991;SDS011;9121;50.926;5.340;2023-07-31T07:42:39;9.65;;;4.82;;
17991;SDS011;9121;50.926;5.340;2023-07-31T07:45:07;9.23;;;4.40;;
17991;SDS011;9121;50.926;5.340;2023-07-31T07:47:35;11.57;;;4.97;;
17991;SDS011;9121;50.926;5.340;2023-07-31T07:50:02;8.63;;;4.70;;
17991;SDS011;9121;50.926;5.340;2023-07-31T07:52:29;11.68;;;4.80;;
17991;SDS011;9121;50.926;5.340;2023-07-31T07:54:56;11.38;;;4.53;;
17991;SDS011;9121;50.926;5.340;2023-07-31T07:57:23;9.13;;;4.70;;
17991;SDS011;9121;50.926;5.340;2023-07-31T07:59:52;9.20;;;4.70;;
17991;SDS011;9121;50.926;5.340;2023-07-31T08:02:19;12.15;;;4.43;;
17991;SDS011;9121;50.926;5.340;2023-07-31T08:04:46;9.32;;;4.47;;
17991;SDS011;9121;50.926;5.340;2023-07-31T08:07:13;8.48;;;4.00;;
17991;SDS011;9121;50.926;5.340;2023-07-31T08:09:41;10.77;;;4.32;;
17991;SDS011;9121;50.926;5.340;2023-07-31T08:12:08;11.75;;;3.72;;
17991;SDS011;9121;50.926;5.340;2023-07-31T08:14:35;6.95;;;3.88;;
17991;SDS011;9121;50.926;5.340;2023-07-31T08:17:03;10.45;;;4.25;;
17991;SDS011;9121;50.926;5.340;2023-07-31T08:19:30;8.27;;;4.15;;
17991;SDS011;9121;50.926;5.340;2023-07-31T08:21:57;9.68;;;4.28;;
17991;SDS011;9121;50.926;5.340;2023-07-31T08:24:24;10.27;;;4.43;;
17991;SDS011;9121;50.926;5.340;2023-07-31T08:26:51;10.13;;;4.32;;
17991;SDS011;9121;50.926;5.340;2023-07-31T08:29:18;7.20;;;4.25;;
17991;SDS011;9121;50.926;5.340;2023-07-31T08:31:45;7.30;;;4.38;;
17991;SDS011;9121;50.926;5.340;2023-07-31T08:34:13;9.55;;;4.10;;
17991;SDS011;9121;50.926;5.340;2023-07-31T08:36:40;11.27;;;4.28;;
17991;SDS011;9121;50.926;5.340;2023-07-31T08:39:07;7.60;;;4.28;;
17991;SDS011;9121;50.926;5.340;2023-07-31T08:41:37;9.70;;;4.40;;
17991;SDS011;9121;50.926;5.340;2023-07-31T08:44:04;8.43;;;3.85;;
17991;SDS011;9121;50.926;5.340;2023-07-31T08:46:33;10.55;;;4.55;;
17991;SDS011;9121;50.926;5.340;2023-07-31T08:49:01;11.68;;;4.55;;
17991;SDS011;9121;50.926;5.340;2023-07-31T08:51:33;8.57;;;3.97;;
17991;SDS011;9121;50.926;5.340;2023-07-31T08:54:00;13.02;;;3.97;;
17991;SDS011;9121;50.926;5.340;2023-07-31T08:56:29;8.73;;;4.57;;
17991;SDS011;9121;50.926;5.340;2023-07-31T08:58:57;9.93;;;4.13;;
17991;SDS011;9121;50.926;5.340;2023-07-31T09:01:27;10.25;;;4.30;;
17991;SDS011;9121;50.926;5.340;2023-07-31T09:03:57;9.43;;;4.47;;
17991;SDS011;9121;50.926;5.340;2023-07-31T09:06:27;8.52;;;4.28;;
17991;SDS011;9121;50.926;5.340;2023-07-31T09:08:57;8.27;;;3.90;;
17991;SDS011;9121;50.926;5.340;2023-07-31T09:11:24;10.88;;;3.90;;
17991;SDS011;9121;50.926;5.340;2023-07-31T09:13:53;9.90;;;4.00;;
17991;SDS011;9121;50.926;5.340;2023-07-31T09:16:26;8.85;;;4.38;;
17991;SDS011;9121;50.926;5.340;2023-07-31T09:18:55;11.50;;;4.10;;
17991;SDS011;9121;50.926;5.340;2023-07-31T09:21:23;8.82;;;3.60;;
17991;SDS011;9121;50.926;5.340;2023-07-31T09:23:52;7.40;;;3.80;;
17991;SDS011;9121;50.926;5.340;2023-07-31T09:26:30;6.95;;;3.40;;
17991;SDS011;9121;50.926;5.340;2023-07-31T09:28:59;5.20;;;2.95;;
17991;SDS011;9121;50.926;5.340;2023-07-31T09:31:33;6.18;;;3.33;;
17991;SDS011;9121;50.926;5.340;2023-07-31T09:34:05;4.55;;;2.65;;
17991;SDS011;9121;50.926;5.340;2023-07-31T09:36:32;6.28;;;3.25;;
17991;SDS011;9121;50.926;5.340;2023-07-31T09:39:05;8.00;;;2.88;;
17991;SDS011;9121;50.926;5.340;2023-07-31T09:41:37;3.83;;;2.25;;
17991;SDS011;9121;50.926;5.340;2023-07-31T09:44:05;3.53;;;2.40;;
17991;SDS011;9121;50.926;5.340;2023-07-31T09:46:34;5.60;;;2.35;;
17991;SDS011;9121;50.926;5.340;2023-07-31T09:49:08;3.25;;;2.33;;
17991;SDS011;9121;50.926;5.340;2023-07-31T09:51:35;5.00;;;2.33;;
17991;SDS011;9121;50.926;5.340;2023-07-31T09:54:08;3.10;;;2.00;;
17991;SDS011;9121;50.926;5.340;2023-07-31T09:56:40;3.63;;;2.03;;
17991;SDS011;9121;50.926;5.340;2023-07-31T09:59:10;6.82;;;2.30;;
17991;SDS011;9121;50.926;5.340;2023-07-31T10:01:38;5.18;;;2.15;;
17991;SDS011;9121;50.926;5.340;2023-07-31T10:04:07;2.75;;;2.03;;
17991;SDS011;9121;50.926;5.340;2023-07-31T10:06:35;4.45;;;2.22;;
17991;SDS011;9121;50.926;5.340;2023-07-31T10:09:03;3.05;;;1.95;;
17991;SDS011;9121;50.926;5.340;2023-07-31T10:11:33;3.47;;;2.30;;
17991;SDS011;9121;50.926;5.340;2023-07-31T10:14:06;4.60;;;2.65;;
17991;SDS011;9121;50.926;5.340;2023-07-31T10:16:38;4.78;;;2.42;;
17991;SDS011;9121;50.926;5.340;2023-07-31T10:19:06;6.07;;;3.05;;
17991;SDS011;9121;50.926;5.340;2023-07-31T10:21:34;5.88;;;3.00;;
17991;SDS011;9121;50.926;5.340;2023-07-31T10:24:03;3.88;;;2.53;;
17991;SDS011;9121;50.926;5.340;2023-07-31T10:26:31;6.28;;;3.25;;
17991;SDS011;9121;50.926;5.340;2023-07-31T10:28:59;8.18;;;3.10;;
17991;SDS011;9121;50.926;5.340;2023-07-31T10:31:28;6.35;;;3.35;;
17991;SDS011;9121;50.926;5.340;2023-07-31T10:33:55;7.05;;;3.30;;
17991;SDS011;9121;50.926;5.340;2023-07-31T10:36:24;6.47;;;3.40;;
17991;SDS011;9121;50.926;5.340;2023-07-31T10:38:52;8.05;;;3.38;;
17991;SDS011;9121;50.926;5.340;2023-07-31T10:41:27;8.23;;;4.20;;
17991;SDS011;9121;50.926;5.340;2023-07-31T10:43:57;5.70;;;3.63;;
17991;SDS011;9121;50.926;5.340;2023-07-31T10:46:24;10.45;;;4.10;;
17991;SDS011;9121;50.926;5.340;2023-07-31T10:48:58;7.35;;;3.90;;
17991;SDS011;9121;50.926;5.340;2023-07-31T10:51:32;11.02;;;4.25;;
17991;SDS011;9121;50.926;5.340;2023-07-31T10:54:10;9.02;;;4.28;;
17991;SDS011;9121;50.926;5.340;2023-07-31T10:56:37;12.27;;;4.50;;
17991;SDS011;9121;50.926;5.340;2023-07-31T10:59:04;8.48;;;4.22;;
17991;SDS011;9121;50.926;5.340;2023-07-31T11:04:22;7.82;;;4.13;;
17991;SDS011;9121;50.926;5.340;2023-07-31T11:06:57;9.35;;;4.47;;
17991;SDS011;9121;50.926;5.340;2023-07-31T11:09:26;9.43;;;4.28;;
17991;SDS011;9121;50.926;5.340;2023-07-31T11:11:55;11.43;;;4.60;;
17991;SDS011;9121;50.926;5.340;2023-07-31T11:14:22;16.83;;;4.82;;
17991;SDS011;9121;50.926;5.340;2023-07-31T11:16:49;6.38;;;4.22;;
17991;SDS011;9121;50.926;5.340;2023-07-31T11:19:21;12.43;;;4.85;;
17991;SDS011;9121;50.926;5.340;2023-07-31T11:21:50;9.93;;;4.13;;
17991;SDS011;9121;50.926;5.340;2023-07-31T11:24:18;10.93;;;4.55;;
17991;SDS011;9121;50.926;5.340;2023-07-31T11:26:49;8.15;;;4.50;;
17991;SDS011;9121;50.926;5.340;2023-07-31T11:29:16;11.15;;;4.90;;
17991;SDS011;9121;50.926;5.340;2023-07-31T11:31:44;9.32;;;4.65;;
17991;SDS011;9121;50.926;5.340;2023-07-31T11:34:11;10.10;;;4.82;;
17991;SDS011;9121;50.926;5.340;2023-07-31T11:36:40;10.63;;;4.22;;
17991;SDS011;9121;50.926;5.340;2023-07-31T11:39:07;10.90;;;4.30;;
17991;SDS011;9121;50.926;5.340;2023-07-31T11:41:35;10.63;;;4.70;;
17991;SDS011;9121;50.926;5.340;2023-07-31T11:44:02;9.13;;;4.45;;
17991;SDS011;9121;50.926;5.340;2023-07-31T11:46:29;10.38;;;4.97;;
17991;SDS011;9121;50.926;5.340;2023-07-31T11:48:58;7.93;;;4.22;;
17991;SDS011;9121;50.926;5.340;2023-07-31T11:51:26;8.68;;;4.03;;
17991;SDS011;9121;50.926;5.340;2023-07-31T11:53:57;11.85;;;4.90;;
17991;SDS011;9121;50.926;5.340;2023-07-31T11:56:26;9.50;;;4.82;;
17991;SDS011;9121;50.926;5.340;2023-07-31T11:58:54;13.38;;;4.55;;
17991;SDS011;9121;50.926;5.340;2023-07-31T12:01:24;13.63;;;4.82;;
17991;SDS011;9121;50.926;5.340;2023-07-31T12:03:52;7.63;;;4.35;;
17991;SDS011;9121;50.926;5.340;2023-07-31T12:06:20;11.30;;;4.55;;
17991;SDS011;9121;50.926;5.340;2023-07-31T12:08:48;10.55;;;4.35;;
17991;SDS011;9121;50.926;5.340;2023-07-31T12:11:16;10.43;;;4.30;;
17991;SDS011;9121;50.926;5.340;2023-07-31T12:13:44;10.55;;;3.85;;
17991;SDS011;9121;50.926;5.340;2023-07-31T12:16:11;8.15;;;4.95;;
17991;SDS011;9121;50.926;5.340;2023-07-31T12:18:38;11.45;;;4.38;;
17991;SDS011;9121;50.926;5.340;2023-07-31T12:21:06;7.93;;;4.28;;
17991;SDS011;9121;50.926;5.340;2023-07-31T12:23:35;9.88;;;4.30;;
17991;SDS011;9121;50.926;5.340;2023-07-31T12:26:03;9.73;;;4.82;;
17991;SDS011;9121;50.926;5.340;2023-07-31T12:28:35;9.93;;;4.50;;
17991;SDS011;9121;50.926;5.340;2023-07-31T12:31:03;16.30;;;4.57;;
17991;SDS011;9121;50.926;5.340;2023-07-31T12:33:31;10.98;;;4.60;;
17991;SDS011;9121;50.926;5.340;2023-07-31T12:36:00;14.70;;;4.55;;
17991;SDS011;9121;50.926;5.340;2023-07-31T12:38:28;7.60;;;3.92;;
17991;SDS011;9121;50.926;5.340;2023-07-31T12:40:55;7.53;;;4.00;;
17991;SDS011;9121;50.926;5.340;2023-07-31T12:43:22;10.52;;;4.03;;
17991;SDS011;9121;50.926;5.340;2023-07-31T12:45:51;5.80;;;4.15;;
17991;SDS011;9121;50.926;5.340;2023-07-31T12:48:21;11.20;;;4.20;;
17991;SDS011;9121;50.926;5.340;2023-07-31T12:50:48;9.18;;;4.32;;
17991;SDS011;9121;50.926;5.340;2023-07-31T12:53:15;12.05;;;4.93;;
17991;SDS011;9121;50.926;5.340;2023-07-31T12:55:42;11.38;;;4.57;;
17991;SDS011;9121;50.926;5.340;2023-07-31T12:58:09;10.52;;;4.80;;
17991;SDS011;9121;50.926;5.340;2023-07-31T13:00:36;14.40;;;5.05;;
17991;SDS011;9121;50.926;5.340;2023-07-31T13:03:04;9.85;;;4.47;;
17991;SDS011;9121;50.926;5.340;2023-07-31T13:05:31;9.57;;;4.53;;
17991;SDS011;9121;50.926;5.340;2023-07-31T13:07:58;10.02;;;4.40;;
17991;SDS011;9121;50.926;5.340;2023-07-31T13:10:25;11.02;;;5.07;;
17991;SDS011;9121;50.926;5.340;2023-07-31T13:12:54;7.75;;;4.50;;
17991;SDS011;9121;50.926;5.340;2023-07-31T13:15:22;10.75;;;4.43;;
17991;SDS011;9121;50.926;5.340;2023-07-31T13:17:49;10.30;;;5.05;;
17991;SDS011;9121;50.926;5.340;2023-07-31T13:20:17;11.20;;;5.00;;
17991;SDS011;9121;50.926;5.340;2023-07-31T13:22:44;12.85;;;5.00;;
17991;SDS011;9121;50.926;5.340;2023-07-31T13:25:11;10.95;;;5.05;;
17991;SDS011;9121;50.926;5.340;2023-07-31T13:27:38;12.10;;;4.95;;
17991;SDS011;9121;50.926;5.340;2023-07-31T13:30:05;13.77;;;5.13;;
17991;SDS011;9121;50.926;5.340;2023-07-31T13:32:33;12.88;;;4.85;;
17991;SDS011;9121;50.926;5.340;2023-07-31T13:35:03;12.18;;;4.93;;
17991;SDS011;9121;50.926;5.340;2023-07-31T13:37:33;9.55;;;5.22;;
17991;SDS011;9121;50.926;5.340;2023-07-31T13:40:00;14.50;;;4.82;;
17991;SDS011;9121;50.926;5.340;2023-07-31T13:42:29;11.57;;;5.05;;
17991;SDS011;9121;50.926;5.340;2023-07-31T13:44:56;11.60;;;5.28;;
17991;SDS011;9121;50.926;5.340;2023-07-31T13:47:23;12.07;;;4.72;;
17991;SDS011;9121;50.926;5.340;2023-07-31T13:49:50;13.40;;;5.43;;
17991;SDS011;9121;50.926;5.340;2023-07-31T13:52:18;14.05;;;5.47;;
17991;SDS011;9121;50.926;5.340;2023-07-31T13:54:46;12.25;;;4.78;;
17991;SDS011;9121;50.926;5.340;2023-07-31T13:57:13;10.70;;;4.72;;
17991;SDS011;9121;50.926;5.340;2023-07-31T13:59:40;11.05;;;5.30;;
17991;SDS011;9121;50.926;5.340;2023-07-31T14:02:07;11.75;;;4.85;;
17991;SDS011;9121;50.926;5.340;2023-07-31T14:04:34;11.43;;;4.80;;
17991;SDS011;9121;50.926;5.340;2023-07-31T14:07:01;10.05;;;5.22;;
17991;SDS011;9121;50.926;5.340;2023-07-31T14:09:29;12.98;;;5.65;;
17991;SDS011;9121;50.926;5.340;2023-07-31T14:11:57;10.05;;;4.40;;
17991;SDS011;9121;50.926;5.340;2023-07-31T14:14:24;10.10;;;4.20;;
17991;SDS011;9121;50.926;5.340;2023-07-31T14:16:51;11.77;;;4.25;;
17991;SDS011;9121;50.926;5.340;2023-07-31T14:19:19;11.77;;;4.57;;
17991;SDS011;9121;50.926;5.340;2023-07-31T14:21:45;12.32;;;4.53;;
17991;SDS011;9121;50.926;5.340;2023-07-31T14:24:13;11.25;;;3.88;;
17991;SDS011;9121;50.926;5.340;2023-07-31T14:26:39;6.78;;;3.63;;
17991;SDS011;9121;50.926;5.340;2023-07-31T14:29:08;7.07;;;4.18;;
17991;SDS011;9121;50.926;5.340;2023-07-31T14:31:35;8.93;;;4.63;;
17991;SDS011;9121;50.926;5.340;2023-07-31T14:34:02;14.88;;;5.20;;
17991;SDS011;9121;50.926;5.340;2023-07-31T14:36:29;7.78;;;3.45;;
17991;SDS011;9121;50.926;5.340;2023-07-31T14:38:56;6.45;;;3.45;;
17991;SDS011;9121;50.926;5.340;2023-07-31T14:41:23;8.80;;;3.78;;
17991;SDS011;9121;50.926;5.340;2023-07-31T14:43:50;7.35;;;3.63;;
17991;SDS011;9121;50.926;5.340;2023-07-31T14:46:18;7.38;;;3.53;;
17991;SDS011;9121;50.926;5.340;2023-07-31T14:48:45;10.57;;;3.40;;
17991;SDS011;9121;50.926;5.340;2023-07-31T14:51:12;6.25;;;3.00;;
17991;SDS011;9121;50.926;5.340;2023-07-31T14:53:40;6.45;;;3.42;;
17991;SDS011;9121;50.926;5.340;2023-07-31T14:56:06;7.25;;;3.53;;
17991;SDS011;9121;50.926;5.340;2023-07-31T14:58:33;8.00;;;3.22;;
17991;SDS011;9121;50.926;5.340;2023-07-31T15:01:00;8.65;;;3.25;;